createdAt,value
2018-07-19T00:00:09.213Z,23.15
2018-07-19T00:01:09.787Z,23.15
2018-07-19T00:02:10.371Z,23.13
2018-07-19T00:03:10.992Z,23.13
2018-07-19T00:04:11.580Z,23.17
2018-07-19T00:05:12.207Z,23.17
2018-07-19T00:06:12.788Z,23.18
2018-07-19T00:07:13.364Z,23.12
2018-07-19T00:08:13.948Z,23.17
2018-07-19T00:09:14.528Z,23.23
2018-07-19T00:10:15.111Z,23.15
2018-07-19T00:11:15.691Z,23.21
2018-07-19T00:12:16.324Z,23.13
2018-07-19T00:13:16.905Z,23.21
2018-07-19T00:14:17.483Z,23.20
2018-07-19T00:15:18.059Z,23.18
2018-07-19T00:16:18.694Z,23.23
2018-07-19T00:17:19.274Z,23.15
2018-07-19T00:18:19.854Z,23.15
2018-07-19T00:19:20.435Z,23.17
2018-07-19T00:20:21.017Z,23.21
2018-07-19T00:21:21.596Z,23.15
2018-07-19T00:22:22.172Z,23.17
2018-07-19T00:23:22.756Z,23.18
2018-07-19T00:24:23.337Z,23.05
2018-07-19T00:25:23.968Z,23.17
2018-07-19T00:26:24.547Z,23.15
2018-07-19T00:27:25.218Z,23.15
2018-07-19T00:28:25.800Z,23.15
2018-07-19T00:29:26.380Z,23.15
2018-07-19T00:30:26.959Z,23.23
2018-07-19T00:31:27.541Z,23.08
2018-07-19T00:32:28.117Z,23.18
2018-07-19T00:33:28.752Z,23.17
2018-07-19T00:34:29.333Z,23.13
2018-07-19T00:35:29.953Z,23.15
2018-07-19T00:36:30.527Z,23.18
2018-07-19T00:37:31.111Z,23.08
2018-07-19T00:38:31.693Z,23.10
2018-07-19T00:39:32.274Z,23.09
2018-07-19T00:40:32.856Z,23.23
2018-07-19T00:41:33.426Z,23.09
2018-07-19T00:42:34.005Z,23.02
2018-07-19T00:43:34.587Z,23.08
2018-07-19T00:44:35.218Z,23.17
2018-07-19T00:45:35.799Z,23.12
2018-07-19T00:46:36.426Z,23.09
2018-07-19T00:47:37.057Z,23.06
2018-07-19T00:48:37.681Z,23.12
2018-07-19T00:49:38.258Z,23.02
2018-07-19T00:50:38.886Z,23.09
2018-07-19T00:51:39.465Z,23.08
2018-07-19T00:52:40.040Z,23.05
2018-07-19T00:53:40.622Z,23.12
2018-07-19T00:54:41.199Z,23.05
2018-07-19T00:55:41.779Z,23.06
2018-07-19T00:56:42.357Z,23.08
2018-07-19T00:57:42.937Z,23.05
2018-07-19T00:58:43.516Z,23.02
2018-07-19T00:59:44.096Z,23.03
2018-07-19T01:00:44.671Z,23.03
2018-07-19T01:01:45.252Z,23.03
2018-07-19T01:02:45.834Z,23.03
2018-07-19T01:03:46.410Z,23.06
2018-07-19T01:04:46.992Z,23.12
2018-07-19T01:05:47.572Z,23.05
2018-07-19T01:06:48.198Z,22.99
2018-07-19T01:07:48.827Z,23.00
2018-07-19T01:08:49.413Z,23.06
2018-07-19T01:09:50.037Z,23.18
2018-07-19T01:10:50.679Z,23.05
2018-07-19T01:11:51.239Z,23.00
2018-07-19T01:12:51.818Z,23.03
2018-07-19T01:13:52.400Z,23.09
2018-07-19T01:14:52.978Z,22.96
2018-07-19T01:15:53.567Z,23.03
2018-07-19T01:16:54.148Z,23.06
2018-07-19T01:17:54.724Z,23.02
2018-07-19T01:18:55.308Z,23.06
2018-07-19T01:19:55.889Z,23.09
2018-07-19T01:20:56.473Z,22.98
2018-07-19T01:21:57.099Z,23.03
2018-07-19T01:22:57.728Z,22.98
2018-07-19T01:23:58.306Z,23.00
2018-07-19T01:24:58.929Z,23.05
2018-07-19T01:25:59.599Z,22.96
2018-07-19T01:27:00.209Z,23.02
2018-07-19T01:28:00.836Z,23.02
2018-07-19T01:29:01.420Z,23.02
2018-07-19T01:30:01.995Z,23.02
2018-07-19T01:31:02.576Z,22.99
2018-07-19T01:32:03.152Z,23.00
2018-07-19T01:33:03.776Z,23.05
2018-07-19T01:34:04.361Z,23.05
2018-07-19T01:35:04.984Z,22.96
2018-07-19T01:36:05.563Z,23.03
2018-07-19T01:37:06.144Z,23.00
2018-07-19T01:38:06.774Z,23.05
2018-07-19T01:39:07.355Z,23.06
2018-07-19T01:40:07.938Z,23.03
2018-07-19T01:41:08.518Z,23.08
2018-07-19T01:42:09.152Z,23.03
2018-07-19T01:43:09.732Z,23.03
2018-07-19T01:44:10.312Z,23.05
2018-07-19T01:45:10.886Z,23.05
2018-07-19T01:46:11.617Z,23.02
2018-07-19T01:47:12.199Z,22.98
2018-07-19T01:48:12.776Z,22.94
2018-07-19T01:49:13.360Z,23.02
2018-07-19T01:50:13.943Z,23.00
2018-07-19T01:51:14.520Z,23.00
2018-07-19T01:52:15.104Z,23.05
2018-07-19T01:53:15.731Z,22.99
2018-07-19T01:54:16.314Z,22.99
2018-07-19T01:55:16.896Z,23.06
2018-07-19T01:56:17.476Z,22.99
2018-07-19T01:57:18.109Z,22.93
2018-07-19T01:58:18.683Z,23.00
2018-07-19T01:59:19.268Z,23.02
2018-07-19T02:00:19.848Z,23.09
2018-07-19T02:01:20.430Z,23.02
2018-07-19T02:02:21.009Z,23.02
2018-07-19T02:03:21.594Z,22.94
2018-07-19T02:04:22.166Z,22.98
2018-07-19T02:05:22.742Z,23.00
2018-07-19T02:06:23.327Z,22.96
2018-07-19T02:07:23.955Z,22.94
2018-07-19T02:08:24.587Z,22.98
2018-07-19T02:09:25.184Z,23.03
2018-07-19T02:10:25.750Z,22.98
2018-07-19T02:11:26.329Z,22.99
2018-07-19T02:12:26.954Z,22.93
2018-07-19T02:13:27.539Z,22.99
2018-07-19T02:14:28.120Z,22.96
2018-07-19T02:15:28.695Z,22.94
2018-07-19T02:16:29.273Z,22.94
2018-07-19T02:17:29.852Z,22.94
2018-07-19T02:18:30.438Z,23.00
2018-07-19T02:19:31.016Z,22.99
2018-07-19T02:20:31.647Z,22.94
2018-07-19T02:21:32.224Z,22.99
2018-07-19T02:22:32.800Z,22.96
2018-07-19T02:23:33.379Z,22.93
2018-07-19T02:24:34.021Z,22.96
2018-07-19T02:25:34.584Z,22.96
2018-07-19T02:26:35.168Z,22.96
2018-07-19T02:27:35.742Z,22.90
2018-07-19T02:28:36.319Z,22.85
2018-07-19T02:29:36.900Z,22.91
2018-07-19T02:30:37.521Z,22.85
2018-07-19T02:31:38.156Z,22.94
2018-07-19T02:32:38.734Z,22.91
2018-07-19T02:33:39.313Z,22.94
2018-07-19T02:34:39.889Z,22.88
2018-07-19T02:35:40.473Z,22.90
2018-07-19T02:36:41.052Z,22.88
2018-07-19T02:37:41.625Z,22.85
2018-07-19T02:38:42.207Z,22.88
2018-07-19T02:39:42.781Z,22.88
2018-07-19T02:40:43.361Z,22.91
2018-07-19T02:41:43.937Z,22.85
2018-07-19T02:42:44.561Z,22.88
2018-07-19T02:43:45.146Z,22.87
2018-07-19T02:44:45.717Z,22.93
2018-07-19T02:45:46.299Z,22.94
2018-07-19T02:46:46.881Z,22.93
2018-07-19T02:47:47.461Z,22.93
2018-07-19T02:48:48.095Z,22.91
2018-07-19T02:49:48.673Z,22.94
2018-07-19T02:50:49.454Z,22.83
2018-07-19T02:51:50.031Z,22.85
2018-07-19T02:52:50.608Z,22.90
2018-07-19T02:53:51.183Z,22.98
2018-07-19T02:54:51.768Z,22.90
2018-07-19T02:55:52.343Z,22.85
2018-07-19T02:56:52.915Z,22.87
2018-07-19T02:57:53.498Z,22.88
2018-07-19T02:58:54.125Z,22.85
2018-07-19T02:59:54.704Z,22.85
2018-07-19T03:00:55.281Z,22.88
2018-07-19T03:01:55.862Z,22.88
2018-07-19T03:02:56.442Z,22.88
2018-07-19T03:03:57.017Z,22.90
2018-07-19T03:04:57.596Z,22.83
2018-07-19T03:05:58.177Z,22.88
2018-07-19T03:06:58.757Z,22.87
2018-07-19T03:07:59.333Z,22.87
2018-07-19T03:08:59.967Z,22.88
2018-07-19T03:10:00.597Z,22.88
2018-07-19T03:11:01.224Z,22.84
2018-07-19T03:12:01.802Z,22.93
2018-07-19T03:13:02.382Z,22.85
2018-07-19T03:14:02.967Z,22.87
2018-07-19T03:15:03.598Z,22.83
2018-07-19T03:16:04.175Z,22.88
2018-07-19T03:17:04.751Z,22.80
2018-07-19T03:18:05.338Z,22.87
2018-07-19T03:19:05.916Z,22.84
2018-07-19T03:20:06.490Z,22.81
2018-07-19T03:21:07.067Z,22.85
2018-07-19T03:22:07.689Z,22.88
2018-07-19T03:23:08.266Z,22.88
2018-07-19T03:24:08.840Z,22.87
2018-07-19T03:25:09.420Z,22.84
2018-07-19T03:26:09.997Z,22.84
2018-07-19T03:27:10.622Z,22.87
2018-07-19T03:28:11.205Z,22.87
2018-07-19T03:29:11.791Z,22.84
2018-07-19T03:30:12.468Z,22.87
2018-07-19T03:31:13.247Z,22.87
2018-07-19T03:32:13.821Z,22.85
2018-07-19T03:33:14.444Z,22.85
2018-07-19T03:34:15.026Z,22.83
2018-07-19T03:35:15.606Z,22.87
2018-07-19T03:36:16.189Z,22.85
2018-07-19T03:37:16.762Z,22.84
2018-07-19T03:38:17.346Z,22.88
2018-07-19T03:39:17.926Z,22.85
2018-07-19T03:40:18.507Z,22.84
2018-07-19T03:41:19.087Z,22.81
2018-07-19T03:42:19.668Z,22.83
2018-07-19T03:43:20.247Z,22.84
2018-07-19T03:44:20.823Z,22.85
2018-07-19T03:45:21.406Z,22.90
2018-07-19T03:46:22.036Z,22.87
2018-07-19T03:47:22.662Z,22.84
2018-07-19T03:48:23.292Z,22.84
2018-07-19T03:49:23.873Z,22.85
2018-07-19T03:50:24.500Z,22.81
2018-07-19T03:51:25.029Z,22.81
2018-07-19T03:52:25.608Z,22.83
2018-07-19T03:53:26.188Z,22.78
2018-07-19T03:54:26.770Z,22.81
2018-07-19T03:55:27.348Z,22.81
2018-07-19T03:56:27.980Z,22.84
2018-07-19T03:57:28.600Z,22.80
2018-07-19T03:58:29.176Z,22.78
2018-07-19T03:59:29.758Z,22.78
2018-07-19T04:00:30.340Z,22.78
2018-07-19T04:01:30.970Z,22.80
2018-07-19T04:02:31.552Z,22.72
2018-07-19T04:03:32.126Z,22.81
2018-07-19T04:04:32.709Z,22.80
2018-07-19T04:05:33.283Z,22.84
2018-07-19T04:06:33.864Z,22.78
2018-07-19T04:07:34.642Z,22.81
2018-07-19T04:08:35.274Z,22.83
2018-07-19T04:09:35.852Z,22.83
2018-07-19T04:10:36.431Z,22.80
2018-07-19T04:11:37.009Z,22.81
2018-07-19T04:12:37.589Z,22.80
2018-07-19T04:13:38.169Z,22.84
2018-07-19T04:14:38.751Z,22.73
2018-07-19T04:15:39.321Z,22.78
2018-07-19T04:16:39.905Z,22.78
2018-07-19T04:17:40.535Z,22.78
2018-07-19T04:18:41.116Z,22.73
2018-07-19T04:19:41.698Z,22.80
2018-07-19T04:20:42.279Z,22.80
2018-07-19T04:21:42.861Z,22.78
2018-07-19T04:22:43.439Z,22.78
2018-07-19T04:23:44.072Z,22.78
2018-07-19T04:24:44.643Z,22.73
2018-07-19T04:25:45.225Z,22.73
2018-07-19T04:26:45.809Z,22.80
2018-07-19T04:27:46.484Z,22.78
2018-07-19T04:28:47.059Z,22.80
2018-07-19T04:29:47.640Z,22.76
2018-07-19T04:30:48.222Z,22.75
2018-07-19T04:31:48.846Z,22.73
2018-07-19T04:32:49.425Z,22.73
2018-07-19T04:33:50.007Z,22.75
2018-07-19T04:34:50.590Z,22.75
2018-07-19T04:35:51.166Z,22.83
2018-07-19T04:36:51.798Z,22.78
2018-07-19T04:37:52.377Z,22.83
2018-07-19T04:38:52.951Z,22.76
2018-07-19T04:39:53.534Z,22.87
2018-07-19T04:40:54.157Z,22.78
2018-07-19T04:41:54.739Z,22.73
2018-07-19T04:42:55.319Z,22.80
2018-07-19T04:43:55.899Z,22.70
2018-07-19T04:44:56.529Z,22.78
2018-07-19T04:45:57.110Z,22.75
2018-07-19T04:46:57.697Z,22.80
2018-07-19T04:47:58.317Z,22.75
2018-07-19T04:48:58.900Z,22.72
2018-07-19T04:49:59.487Z,22.76
2018-07-19T04:51:00.108Z,22.75
2018-07-19T04:52:00.681Z,22.75
2018-07-19T04:53:01.265Z,22.75
2018-07-19T04:54:01.896Z,22.78
2018-07-19T04:55:02.475Z,22.76
2018-07-19T04:56:03.055Z,22.83
2018-07-19T04:57:03.637Z,22.75
2018-07-19T04:58:04.209Z,22.76
2018-07-19T04:59:04.790Z,22.80
2018-07-19T05:00:05.368Z,22.76
2018-07-19T05:01:05.997Z,22.68
2018-07-19T05:02:06.594Z,22.69
2018-07-19T05:03:07.156Z,22.70
2018-07-19T05:04:07.732Z,22.70
2018-07-19T05:05:08.359Z,22.69
2018-07-19T05:06:08.937Z,22.72
2018-07-19T05:07:09.512Z,22.70
2018-07-19T05:08:10.098Z,22.69
2018-07-19T05:09:10.674Z,22.75
2018-07-19T05:10:11.255Z,22.75
2018-07-19T05:11:11.836Z,22.72
2018-07-19T05:12:12.414Z,22.78
2018-07-19T05:13:12.991Z,22.72
2018-07-19T05:14:13.598Z,22.75
2018-07-19T05:15:14.152Z,22.78
2018-07-19T05:16:14.783Z,22.70
2018-07-19T05:17:15.358Z,22.72
2018-07-19T05:18:15.939Z,22.70
2018-07-19T05:19:16.520Z,22.75
2018-07-19T05:20:17.150Z,22.75
2018-07-19T05:21:17.726Z,22.72
2018-07-19T05:22:18.304Z,22.75
2018-07-19T05:23:18.937Z,22.75
2018-07-19T05:24:19.510Z,22.72
2018-07-19T05:25:20.087Z,22.72
2018-07-19T05:26:20.668Z,22.70
2018-07-19T05:27:21.242Z,22.75
2018-07-19T05:28:21.822Z,22.73
2018-07-19T05:29:22.401Z,22.76
2018-07-19T05:30:23.035Z,22.78
2018-07-19T05:31:23.607Z,22.72
2018-07-19T05:32:24.281Z,22.72
2018-07-19T05:33:24.963Z,22.69
2018-07-19T05:34:25.542Z,22.73
2018-07-19T05:35:26.161Z,22.73
2018-07-19T05:36:26.735Z,22.68
2018-07-19T05:37:27.316Z,22.73
2018-07-19T05:38:27.892Z,22.78
2018-07-19T05:39:28.474Z,22.68
2018-07-19T05:40:29.108Z,22.72
2018-07-19T05:41:29.636Z,22.70
2018-07-19T05:42:30.288Z,22.73
2018-07-19T05:43:30.831Z,22.70
2018-07-19T05:44:31.417Z,22.75
2018-07-19T05:45:31.992Z,22.72
2018-07-19T05:46:32.625Z,22.75
2018-07-19T05:47:33.251Z,22.80
2018-07-19T05:48:33.886Z,22.73
2018-07-19T05:49:34.465Z,22.70
2018-07-19T05:50:35.045Z,22.75
2018-07-19T05:51:35.625Z,22.76
2018-07-19T05:52:36.200Z,22.73
2018-07-19T05:53:36.783Z,22.78
2018-07-19T05:54:37.358Z,22.80
2018-07-19T05:55:37.941Z,22.72
2018-07-19T05:56:38.525Z,22.78
2018-07-19T05:57:39.102Z,22.73
2018-07-19T05:58:39.685Z,22.75
2018-07-19T05:59:40.264Z,22.69
2018-07-19T06:00:40.846Z,22.70
2018-07-19T06:01:41.430Z,22.72
2018-07-19T06:02:42.004Z,22.70
2018-07-19T06:03:42.634Z,22.70
2018-07-19T06:04:43.211Z,22.68
2018-07-19T06:05:43.845Z,22.72
2018-07-19T06:06:44.477Z,22.73
2018-07-19T06:07:45.054Z,22.75
2018-07-19T06:08:45.720Z,22.75
2018-07-19T06:09:46.302Z,22.70
2018-07-19T06:10:46.877Z,22.75
2018-07-19T06:11:47.497Z,22.73
2018-07-19T06:12:48.076Z,22.70
2018-07-19T06:13:48.663Z,22.68
2018-07-19T06:14:49.239Z,22.72
2018-07-19T06:15:49.820Z,22.72
2018-07-19T06:16:50.445Z,22.72
2018-07-19T06:17:51.022Z,22.73
2018-07-19T06:18:51.597Z,22.69
2018-07-19T06:19:52.180Z,22.72
2018-07-19T06:20:52.811Z,22.70
2018-07-19T06:21:53.394Z,22.68
2018-07-19T06:22:54.022Z,22.75
2018-07-19T06:23:54.603Z,22.76
2018-07-19T06:24:55.175Z,22.70
2018-07-19T06:25:55.759Z,22.73
2018-07-19T06:26:56.392Z,22.72
2018-07-19T06:27:57.020Z,22.73
2018-07-19T06:28:57.598Z,22.69
2018-07-19T06:29:58.181Z,22.72
2018-07-19T06:30:58.763Z,22.72
2018-07-19T06:31:59.340Z,22.72
2018-07-19T06:32:59.925Z,22.68
2018-07-19T06:34:00.507Z,22.72
2018-07-19T06:35:01.083Z,22.76
2018-07-19T06:36:01.661Z,22.72
2018-07-19T06:37:02.240Z,22.70
2018-07-19T06:38:02.871Z,22.75
2018-07-19T06:39:03.446Z,22.68
2018-07-19T06:40:04.028Z,22.73
2018-07-19T06:41:04.622Z,22.70
2018-07-19T06:42:05.183Z,22.72
2018-07-19T06:43:05.761Z,22.68
2018-07-19T06:44:06.394Z,22.70
2018-07-19T06:45:07.024Z,22.76
2018-07-19T06:46:07.604Z,22.75
2018-07-19T06:47:08.179Z,22.70
2018-07-19T06:48:08.757Z,22.68
2018-07-19T06:49:09.343Z,22.68
2018-07-19T06:50:09.923Z,22.68
2018-07-19T06:51:10.497Z,22.68
2018-07-19T06:52:11.075Z,22.72
2018-07-19T06:53:11.658Z,22.73
2018-07-19T06:54:12.285Z,22.68
2018-07-19T06:55:12.904Z,22.69
2018-07-19T06:56:13.481Z,22.73
2018-07-19T06:57:14.111Z,22.72
2018-07-19T06:58:14.687Z,22.72
2018-07-19T06:59:15.271Z,22.72
2018-07-19T07:00:15.850Z,22.73
2018-07-19T07:01:16.430Z,22.72
2018-07-19T07:02:17.011Z,22.66
2018-07-19T07:03:17.594Z,22.70
2018-07-19T07:04:18.220Z,22.76
2018-07-19T07:05:18.840Z,22.69
2018-07-19T07:06:19.420Z,22.72
2018-07-19T07:07:20.046Z,22.68
2018-07-19T07:08:20.630Z,22.73
2018-07-19T07:09:21.211Z,22.76
2018-07-19T07:10:21.784Z,22.69
2018-07-19T07:11:22.368Z,22.73
2018-07-19T07:12:22.945Z,22.73
2018-07-19T07:13:23.524Z,22.72
2018-07-19T07:14:24.100Z,22.63
2018-07-19T07:15:24.683Z,22.70
2018-07-19T07:16:25.263Z,22.72
2018-07-19T07:17:25.841Z,22.75
2018-07-19T07:18:26.422Z,22.69
2018-07-19T07:19:27.088Z,22.72
2018-07-19T07:20:27.629Z,22.73
2018-07-19T07:21:28.207Z,22.76
2018-07-19T07:22:28.783Z,22.73
2018-07-19T07:23:29.366Z,22.75
2018-07-19T07:24:29.997Z,22.72
2018-07-19T07:25:30.571Z,22.73
2018-07-19T07:26:31.151Z,22.73
2018-07-19T07:27:31.728Z,22.78
2018-07-19T07:28:32.364Z,22.76
2018-07-19T07:29:32.942Z,22.76
2018-07-19T07:30:33.524Z,22.80
2018-07-19T07:31:34.105Z,22.75
2018-07-19T07:32:34.686Z,22.76
2018-07-19T07:33:35.266Z,22.68
2018-07-19T07:34:35.844Z,22.81
2018-07-19T07:35:36.429Z,22.76
2018-07-19T07:36:37.061Z,22.72
2018-07-19T07:37:37.636Z,22.72
2018-07-19T07:38:38.221Z,22.81
2018-07-19T07:39:38.888Z,22.76
2018-07-19T07:40:39.469Z,22.70
2018-07-19T07:41:40.091Z,22.75
2018-07-19T07:42:40.671Z,22.73
2018-07-19T07:43:41.252Z,22.80
2018-07-19T07:44:41.830Z,22.78
2018-07-19T07:45:42.406Z,22.73
2018-07-19T07:46:43.039Z,22.78
2018-07-19T07:47:43.667Z,22.78
2018-07-19T07:48:44.247Z,22.80
2018-07-19T07:49:44.828Z,22.80
2018-07-19T07:50:45.409Z,22.81
2018-07-19T07:51:45.988Z,22.78
2018-07-19T07:52:46.613Z,22.81
2018-07-19T07:53:47.193Z,22.85
2018-07-19T07:54:47.824Z,22.78
2018-07-19T07:55:48.404Z,22.81
2018-07-19T07:56:48.985Z,22.81
2018-07-19T07:57:49.566Z,22.81
2018-07-19T07:58:50.147Z,22.81
2018-07-19T07:59:50.722Z,22.80
2018-07-19T08:00:51.301Z,22.76
2018-07-19T08:01:51.885Z,22.80
2018-07-19T08:02:52.468Z,22.81
2018-07-19T08:03:53.050Z,22.85
2018-07-19T08:04:53.632Z,22.85
2018-07-19T08:05:54.217Z,22.85
2018-07-19T08:06:54.794Z,22.84
2018-07-19T08:07:55.425Z,22.84
2018-07-19T08:08:56.052Z,22.85
2018-07-19T08:09:56.581Z,22.87
2018-07-19T08:10:57.166Z,22.91
2018-07-19T08:11:57.745Z,22.85
2018-07-19T08:12:58.329Z,22.88
2018-07-19T08:13:58.902Z,22.88
2018-07-19T08:14:59.531Z,22.88
2018-07-19T08:16:00.259Z,22.88
2018-07-19T08:17:00.840Z,22.88
2018-07-19T08:18:01.439Z,22.88
2018-07-19T08:19:02.043Z,22.88
2018-07-19T08:20:02.624Z,22.88
2018-07-19T08:21:03.207Z,22.88
2018-07-19T08:22:03.784Z,22.85
2018-07-19T08:23:04.410Z,22.88
2018-07-19T08:24:04.986Z,22.85
2018-07-19T08:25:05.608Z,22.91
2018-07-19T08:26:06.186Z,22.87
2018-07-19T08:27:06.766Z,22.87
2018-07-19T08:28:07.348Z,22.85
2018-07-19T08:29:07.950Z,22.87
2018-07-19T08:30:08.505Z,22.85
2018-07-19T08:31:09.079Z,22.83
2018-07-19T08:32:09.666Z,22.85
2018-07-19T08:33:10.290Z,22.85
2018-07-19T08:34:10.872Z,22.87
2018-07-19T08:35:11.501Z,22.87
2018-07-19T08:36:12.194Z,22.90
2018-07-19T08:37:12.711Z,22.88
2018-07-19T08:38:13.287Z,22.84
2018-07-19T08:39:13.865Z,22.83
2018-07-19T08:40:14.446Z,22.91
2018-07-19T08:41:15.026Z,22.84
2018-07-19T08:42:15.608Z,22.84
2018-07-19T08:43:16.237Z,22.87
2018-07-19T08:44:16.819Z,22.85
2018-07-19T08:45:17.396Z,22.83
2018-07-19T08:46:17.980Z,22.88
2018-07-19T08:47:18.560Z,22.85
2018-07-19T08:48:19.338Z,22.85
2018-07-19T08:49:19.923Z,22.85
2018-07-19T08:50:20.550Z,22.88
2018-07-19T08:51:21.176Z,22.88
2018-07-19T08:52:21.757Z,22.85
2018-07-19T08:53:22.382Z,22.85
2018-07-19T08:54:22.964Z,22.99
2018-07-19T08:55:23.595Z,22.88
2018-07-19T08:56:24.206Z,22.93
2018-07-19T08:57:24.791Z,22.99
2018-07-19T08:58:25.375Z,22.99
2018-07-19T08:59:25.955Z,22.94
2018-07-19T09:00:26.539Z,22.93
2018-07-19T09:01:27.170Z,22.93
2018-07-19T09:02:27.760Z,22.96
2018-07-19T09:03:28.383Z,23.00
2018-07-19T09:04:28.961Z,23.03
2018-07-19T09:05:29.590Z,23.03
2018-07-19T09:06:30.170Z,23.03
2018-07-19T09:07:30.747Z,23.03
2018-07-19T09:08:31.336Z,22.93
2018-07-19T09:09:31.902Z,22.98
2018-07-19T09:10:32.538Z,22.91
2018-07-19T09:11:33.119Z,22.85
2018-07-19T09:12:33.695Z,22.85
2018-07-19T09:13:34.278Z,22.90
2018-07-19T09:14:34.858Z,22.91
2018-07-19T09:15:35.434Z,22.84
2018-07-19T09:16:36.020Z,22.73
2018-07-19T09:17:36.599Z,22.76
2018-07-19T09:18:37.178Z,22.68
2018-07-19T09:19:37.811Z,22.68
2018-07-19T09:20:38.332Z,22.66
2018-07-19T09:21:38.962Z,22.69
2018-07-19T09:22:39.629Z,22.72
2018-07-19T09:23:40.190Z,22.70
2018-07-19T09:24:40.769Z,22.69
2018-07-19T09:25:41.401Z,22.62
2018-07-19T09:26:42.085Z,22.63
2018-07-19T09:27:42.659Z,22.59
2018-07-19T09:28:43.246Z,22.57
2018-07-19T09:29:43.830Z,22.60
2018-07-19T09:30:44.414Z,22.62
2018-07-19T09:31:44.998Z,22.59
2018-07-19T09:32:45.624Z,22.50
2018-07-19T09:33:46.167Z,22.43
2018-07-19T09:34:46.752Z,22.48
2018-07-19T09:35:47.337Z,22.51
2018-07-19T09:36:47.918Z,22.62
2018-07-19T09:37:48.505Z,22.63
2018-07-19T09:38:49.093Z,22.63
2018-07-19T09:39:49.679Z,22.70
2018-07-19T09:40:50.311Z,22.72
2018-07-19T09:41:51.026Z,22.70
2018-07-19T09:42:51.530Z,22.76
2018-07-19T09:43:52.165Z,22.72
2018-07-19T09:44:52.751Z,22.75
2018-07-19T09:45:53.334Z,22.81
2018-07-19T09:46:53.916Z,22.85
2018-07-19T09:47:54.505Z,22.85
2018-07-19T09:48:55.109Z,22.88
2018-07-19T09:49:55.725Z,22.91
2018-07-19T09:50:56.311Z,22.90
2018-07-19T09:51:56.888Z,22.99
2018-07-19T09:52:57.477Z,23.00
2018-07-19T09:53:58.065Z,22.99
2018-07-19T09:54:58.647Z,23.13
2018-07-19T09:55:59.240Z,23.20
2018-07-19T09:56:59.859Z,23.18
2018-07-19T09:58:00.448Z,23.13
2018-07-19T09:59:01.032Z,23.27
2018-07-19T10:00:01.664Z,23.34
2018-07-19T10:01:02.301Z,23.43
2018-07-19T10:02:02.927Z,23.51
2018-07-19T10:03:03.512Z,23.54
2018-07-19T10:04:04.089Z,23.56
2018-07-19T10:05:04.671Z,23.66
2018-07-19T10:06:05.259Z,23.61
2018-07-19T10:07:05.838Z,23.66
2018-07-19T10:08:06.426Z,23.71
2018-07-19T10:09:07.011Z,23.80
2018-07-19T10:10:07.636Z,23.84
2018-07-19T10:11:08.178Z,23.99
2018-07-19T10:12:08.768Z,23.84
2018-07-19T10:13:09.353Z,23.86
2018-07-19T10:14:09.940Z,23.91
2018-07-19T10:15:10.530Z,23.84
2018-07-19T10:16:11.115Z,23.91
2018-07-19T10:17:11.738Z,23.93
2018-07-19T10:18:12.379Z,23.93
2018-07-19T10:19:13.016Z,23.95
2018-07-19T10:20:13.596Z,23.96
2018-07-19T10:21:14.180Z,23.95
2018-07-19T10:22:14.772Z,24.02
2018-07-19T10:23:15.352Z,24.02
2018-07-19T10:24:15.950Z,23.99
2018-07-19T10:25:16.566Z,24.05
2018-07-19T10:26:17.152Z,23.99
2018-07-19T10:27:17.728Z,24.02
2018-07-19T10:28:18.317Z,23.99
2018-07-19T10:29:18.903Z,23.92
2018-07-19T10:30:19.540Z,23.96
2018-07-19T10:31:20.125Z,23.93
2018-07-19T10:32:20.843Z,23.99
2018-07-19T10:33:21.338Z,23.98
2018-07-19T10:34:21.984Z,24.01
2018-07-19T10:35:22.560Z,24.06
2018-07-19T10:36:23.192Z,23.93
2018-07-19T10:37:23.781Z,23.96
2018-07-19T10:38:24.380Z,23.84
2018-07-19T10:39:25.001Z,23.92
2018-07-19T10:40:25.589Z,23.93
2018-07-19T10:41:26.178Z,23.95
2018-07-19T10:42:26.806Z,24.01
2018-07-19T10:43:27.391Z,23.98
2018-07-19T10:44:27.999Z,23.99
2018-07-19T10:45:28.559Z,24.05
2018-07-19T10:46:29.143Z,24.03
2018-07-19T10:47:29.737Z,24.06
2018-07-19T10:48:30.322Z,24.08
2018-07-19T10:49:30.952Z,24.14
2018-07-19T10:50:31.540Z,24.06
2018-07-19T10:51:32.139Z,24.17
2018-07-19T10:52:32.717Z,24.21
2018-07-19T10:53:33.353Z,24.26
2018-07-19T10:54:33.936Z,24.24
2018-07-19T10:55:34.524Z,24.28
2018-07-19T10:56:35.162Z,24.28
2018-07-19T10:57:35.755Z,24.24
2018-07-19T10:58:36.335Z,24.35
2018-07-19T10:59:36.925Z,24.40
2018-07-19T11:00:37.510Z,24.39
2018-07-19T11:01:38.096Z,24.36
2018-07-19T11:02:38.685Z,24.47
2018-07-19T11:03:39.271Z,24.45
2018-07-19T11:04:39.905Z,24.55
2018-07-19T11:05:40.491Z,24.51
2018-07-19T11:06:41.082Z,24.51
2018-07-19T11:07:41.666Z,24.45
2018-07-19T11:08:42.309Z,24.54
2018-07-19T11:09:42.965Z,24.50
2018-07-19T11:10:43.525Z,24.58
2018-07-19T11:11:44.152Z,24.55
2018-07-19T11:12:44.744Z,24.54
2018-07-19T11:13:45.324Z,24.55
2018-07-19T11:14:45.906Z,24.57
2018-07-19T11:15:46.497Z,24.58
2018-07-19T11:16:47.079Z,24.69
2018-07-19T11:17:47.669Z,24.77
2018-07-19T11:18:48.256Z,24.73
2018-07-19T11:19:48.843Z,24.76
2018-07-19T11:20:49.473Z,24.74
2018-07-19T11:21:50.102Z,24.77
2018-07-19T11:22:50.684Z,24.74
2018-07-19T11:23:51.269Z,24.84
2018-07-19T11:24:51.909Z,24.73
2018-07-19T11:25:52.496Z,24.77
2018-07-19T11:26:53.084Z,24.86
2018-07-19T11:27:53.719Z,24.86
2018-07-19T11:28:54.308Z,24.91
2018-07-19T11:29:54.944Z,24.91
2018-07-19T11:30:55.575Z,24.96
2018-07-19T11:31:56.269Z,24.85
2018-07-19T11:32:56.856Z,24.89
2018-07-19T11:33:57.543Z,24.86
2018-07-19T11:34:58.133Z,24.98
2018-07-19T11:35:58.723Z,25.01
2018-07-19T11:36:59.312Z,25.16
2018-07-19T11:37:59.903Z,25.35
2018-07-19T11:39:00.489Z,25.35
2018-07-19T11:40:01.082Z,25.48
2018-07-19T11:41:01.726Z,25.60
2018-07-19T11:42:02.359Z,25.65
2018-07-19T11:43:02.941Z,25.73
2018-07-19T11:44:03.532Z,25.77
2018-07-19T11:45:04.122Z,25.78
2018-07-19T11:46:04.710Z,25.81
2018-07-19T11:47:05.295Z,25.88
2018-07-19T11:48:05.884Z,25.98
2018-07-19T11:49:06.524Z,25.99
2018-07-19T11:50:07.167Z,25.88
2018-07-19T11:51:07.745Z,26.00
2018-07-19T11:52:08.334Z,26.00
2018-07-19T11:53:08.973Z,25.99
2018-07-19T11:54:09.559Z,25.99
2018-07-19T11:55:10.152Z,26.13
2018-07-19T11:56:10.738Z,26.10
2018-07-19T11:57:11.331Z,26.19
2018-07-19T11:58:11.917Z,26.23
2018-07-19T11:59:12.506Z,26.36
2018-07-19T12:00:13.097Z,26.29
2018-07-19T12:01:13.688Z,26.37
2018-07-19T12:02:14.278Z,26.29
2018-07-19T12:03:14.860Z,26.37
2018-07-19T12:04:15.448Z,26.26
2018-07-19T12:05:16.236Z,26.29
2018-07-19T12:06:16.830Z,26.37
2018-07-19T12:07:17.416Z,26.29
2018-07-19T12:08:18.010Z,26.25
2018-07-19T12:09:18.642Z,26.26
2018-07-19T12:10:19.232Z,26.28
2018-07-19T12:11:19.870Z,26.28
2018-07-19T12:12:20.455Z,26.25
2018-07-19T12:13:21.138Z,26.28
2018-07-19T12:14:21.727Z,26.18
2018-07-19T12:15:22.321Z,26.10
2018-07-19T12:16:22.905Z,26.18
2018-07-19T12:17:23.493Z,26.16
2018-07-19T12:18:24.079Z,26.18
2018-07-19T12:19:24.672Z,26.13
2018-07-19T12:20:25.262Z,26.18
2018-07-19T12:21:25.844Z,26.31
2018-07-19T12:22:26.486Z,26.36
2018-07-19T12:23:27.075Z,26.33
2018-07-19T12:24:27.659Z,26.31
2018-07-19T12:25:28.244Z,26.23
2018-07-19T12:26:28.835Z,26.21
2018-07-19T12:27:29.480Z,26.21
2018-07-19T12:28:30.063Z,26.16
2018-07-19T12:29:30.700Z,26.16
2018-07-19T12:30:31.303Z,26.22
2018-07-19T12:31:31.877Z,26.25
2018-07-19T12:32:32.513Z,26.33
2018-07-19T12:33:33.202Z,26.28
2018-07-19T12:34:33.813Z,26.41
2018-07-19T12:35:34.376Z,26.44
2018-07-19T12:36:34.973Z,26.70
2018-07-19T12:37:35.605Z,26.85
2018-07-19T12:38:36.200Z,26.84
2018-07-19T12:39:36.790Z,26.92
2018-07-19T12:40:37.374Z,26.89
2018-07-19T12:41:37.970Z,26.88
2018-07-19T12:42:38.631Z,26.92
2018-07-19T12:43:39.201Z,26.90
2018-07-19T12:45:02.279Z,26.83
2018-07-19T12:46:02.909Z,26.85
2018-07-19T12:47:03.500Z,26.90
2018-07-19T12:48:04.142Z,26.84
2018-07-19T12:49:04.731Z,27.08
2018-07-19T12:50:05.373Z,27.33
2018-07-19T12:51:05.967Z,27.26
2018-07-19T12:52:06.592Z,27.08
2018-07-19T12:53:07.145Z,27.02
2018-07-19T12:54:07.787Z,26.88
2018-07-19T12:55:08.381Z,26.90
2018-07-19T12:56:08.973Z,26.95
2018-07-19T12:57:09.566Z,26.92
2018-07-19T12:58:10.155Z,27.00
2018-07-19T12:59:10.740Z,27.05
2018-07-19T13:00:11.344Z,27.02